Terminal Aerodrome Forecast
Issued by NWS

Home | Current Version | Previous Version | Text Only | Print | Product List | Glossary On
Versions: 1 2 3 4 5 6 7 8 9 10 11 12 13 14 15 16 17 18
611
FTUS44 KLZK 201734
TAFBPK
TAF
KBPK 201734Z 2018/2118 VRB05KT P6SM VCSH SCT050 BKN250
      TEMPO 2018/2019 -SHRA
     FM201900 15006KT P6SM VCTS SCT050CB BKN250
      TEMPO 2019/2023 5SM -TSRA BR
     FM210200 17004KT P6SM VCTS SCT050CB OVC100=

USA.gov is the U.S. government's official web portal to all federal, state and local government web resources and services.